Time;durP1;ratioP1;P1;durP2;ratioP2;P2;SDS_P1;SDS_P2;PMS_P1;PMS_P2;Temp;Humidity;BMP_temperature;BMP_pressure;BME280_temperature;BME280_humidity;BME280_pressure;Samples;Min_cycle;Max_cycle;Signal;HPM_P1;HPM_P2
2021/07/19 00:01:43;;;;;;;12.13;10.65;;;22.80;99.90;;;;;;5079829;28;20256;-73
2021/07/19 00:04:10;;;;;;;12.82;10.98;;;22.80;99.90;;;;;;5072407;28;20247;-73
2021/07/19 00:06:37;;;;;;;11.75;10.75;;;22.70;99.90;;;;;;5072085;28;20206;-74
2021/07/19 00:09:05;;;;;;;11.57;10.55;;;22.70;99.90;;;;;;5072728;28;20275;-73
2021/07/19 00:11:32;;;;;;;13.13;11.73;;;22.70;99.90;;;;;;5072493;28;20210;-73
2021/07/19 00:13:59;;;;;;;11.70;10.60;;;22.70;99.90;;;;;;5071802;28;20206;-73
2021/07/19 00:16:27;;;;;;;13.45;11.45;;;22.70;99.90;;;;;;5071806;28;20230;-74
2021/07/19 00:18:54;;;;;;;11.52;10.43;;;22.60;99.90;;;;;;5071966;28;20260;-74
2021/07/19 00:21:21;;;;;;;13.73;12.13;;;22.60;99.90;;;;;;5072277;28;20255;-73
2021/07/19 00:23:48;;;;;;;14.25;10.77;;;22.60;99.90;;;;;;5071279;28;20202;-73
2021/07/19 00:26:15;;;;;;;13.55;12.07;;;22.60;99.90;;;;;;5070987;28;20735;-73
2021/07/19 00:28:42;;;;;;;12.48;11.18;;;22.60;99.90;;;;;;5071144;28;20762;-74
2021/07/19 00:31:09;;;;;;;12.35;11.25;;;22.60;99.90;;;;;;5071578;28;20608;-73
2021/07/19 00:33:38;;;;;;;11.60;10.40;;;22.50;99.90;;;;;;5071017;28;20210;-74
2021/07/19 00:36:05;;;;;;;12.90;11.70;;;22.40;99.90;;;;;;5072007;28;20238;-74
2021/07/19 00:38:33;;;;;;;13.45;12.05;;;22.40;99.90;;;;;;5072287;28;20263;-74
2021/07/19 00:41:00;;;;;;;12.85;11.65;;;22.40;99.90;;;;;;5070944;28;20627;-73
2021/07/19 00:43:27;;;;;;;13.85;12.50;;;22.40;99.90;;;;;;5071907;28;20210;-73
2021/07/19 00:45:54;;;;;;;13.45;12.15;;;22.40;99.90;;;;;;5070714;28;20210;-72
2021/07/19 00:48:21;;;;;;;13.07;11.85;;;22.30;99.90;;;;;;5071897;28;20275;-74
2021/07/19 00:50:50;;;;;;;13.35;12.20;;;22.20;99.90;;;;;;5071105;28;20202;-73
2021/07/19 00:53:17;;;;;;;12.85;11.65;;;22.20;99.90;;;;;;5071502;28;20202;-74
2021/07/19 00:55:46;;;;;;;13.43;11.70;;;22.20;99.90;;;;;;5070710;28;20210;-73
2021/07/19 00:58:15;;;;;;;13.13;11.90;;;22.10;99.90;;;;;;5071181;28;20673;-73
2021/07/19 01:00:44;;;;;;;13.50;12.13;;;22.10;99.90;;;;;;5071160;28;20698;-73
2021/07/19 01:03:12;;;;;;;12.95;11.85;;;22.00;99.90;;;;;;5071315;28;20207;-73
2021/07/19 01:05:40;;;;;;;13.10;11.55;;;21.90;99.90;;;;;;5070855;28;20210;-73
2021/07/19 01:08:09;;;;;;;14.15;12.80;;;21.80;99.90;;;;;;5070861;28;20202;-73
2021/07/19 01:10:38;;;;;;;18.90;13.35;;;21.80;99.90;;;;;;5070780;28;20202;-74
2021/07/19 01:13:06;;;;;;;12.30;11.05;;;21.90;99.90;;;;;;5071147;28;20206;-73
2021/07/19 01:15:35;;;;;;;12.70;11.23;;;21.80;99.90;;;;;;5071308;28;20678;-73
2021/07/19 01:18:03;;;;;;;13.50;12.30;;;21.70;99.90;;;;;;5071140;28;20649;-73
2021/07/19 01:20:33;;;;;;;13.82;12.45;;;21.70;99.90;;;;;;5071064;28;20211;-73
2021/07/19 01:23:34;;;;;;;14.00;12.55;;;21.70;99.90;;;;;;5070288;28;20682;-73
2021/07/19 01:26:13;;;;;;;11.70;10.63;;;21.70;99.90;;;;;;5070457;28;20222;-72
2021/07/19 01:28:44;;;;;;;13.93;12.70;;;21.50;99.90;;;;;;5070162;28;20260;-72
2021/07/19 01:31:15;;;;;;;14.65;12.10;;;21.40;99.90;;;;;;5070728;28;20240;-72
2021/07/19 01:33:45;;;;;;;12.90;11.60;;;21.50;99.90;;;;;;5070432;28;20255;-73
2021/07/19 01:36:16;;;;;;;14.80;13.40;;;21.40;99.90;;;;;;5070688;28;20284;-72
2021/07/19 01:38:43;;;;;;;14.52;13.23;;;21.30;99.90;;;;;;5070009;28;20252;-72
2021/07/19 01:41:13;;;;;;;13.60;11.70;;;21.40;99.90;;;;;;5070810;28;20206;-73
2021/07/19 01:43:42;;;;;;;13.68;12.32;;;21.30;99.90;;;;;;5069640;28;20256;-72
2021/07/19 01:46:10;;;;;;;25.23;13.43;;;21.30;99.90;;;;;;5069959;28;20202;-73
2021/07/19 01:48:37;;;;;;;14.52;13.02;;;21.30;99.90;;;;;;5070298;28;20206;-72
2021/07/19 01:51:05;;;;;;;13.98;12.60;;;21.30;99.90;;;;;;5070692;28;20691;-73
2021/07/19 01:53:35;;;;;;;14.43;12.93;;;21.20;99.90;;;;;;5070934;28;20210;-74
2021/07/19 01:56:03;;;;;;;15.48;13.88;;;21.10;99.90;;;;;;5070396;28;20238;-73
2021/07/19 01:58:31;;;;;;;15.02;13.63;;;21.00;99.90;;;;;;5070401;28;20240;-75
2021/07/19 02:01:00;;;;;;;12.98;11.77;;;21.00;99.90;;;;;;5069875;28;20230;-75
2021/07/19 02:03:28;;;;;;;15.48;13.90;;;21.00;99.90;;;;;;5070369;28;20213;-74
2021/07/19 02:05:57;;;;;;;17.17;14.90;;;21.00;99.90;;;;;;5069782;28;20238;-75
2021/07/19 02:08:25;;;;;;;14.05;12.68;;;20.90;99.90;;;;;;5070193;28;20255;-75
2021/07/19 02:10:54;;;;;;;14.32;12.88;;;21.00;99.90;;;;;;5069683;28;20213;-75
2021/07/19 02:13:22;;;;;;;14.73;13.30;;;21.00;99.90;;;;;;5070086;28;20206;-74
2021/07/19 02:15:51;;;;;;;15.48;13.77;;;21.00;99.90;;;;;;5070081;28;20210;-74
2021/07/19 02:18:23;;;;;;;14.82;13.32;;;20.90;99.90;;;;;;5069971;28;20230;-73
2021/07/19 02:20:51;;;;;;;15.27;13.93;;;20.90;99.90;;;;;;5069947;28;20660;-73
2021/07/19 02:23:21;;;;;;;16.25;14.57;;;20.80;99.90;;;;;;5069971;28;20209;-74
2021/07/19 02:25:49;;;;;;;15.77;14.27;;;20.80;99.90;;;;;;5069553;28;20670;-73
2021/07/19 02:28:17;;;;;;;15.25;13.85;;;20.80;99.90;;;;;;5070198;28;20206;-74
2021/07/19 02:30:44;;;;;;;14.20;12.75;;;20.90;99.90;;;;;;5069769;28;20214;-73
2021/07/19 02:33:13;;;;;;;16.05;14.05;;;20.90;99.90;;;;;;5070240;28;20603;-73
2021/07/19 02:35:42;;;;;;;14.18;12.98;;;20.80;99.90;;;;;;5069897;28;20206;-71
2021/07/19 02:38:11;;;;;;;15.27;13.82;;;20.70;99.90;;;;;;5069903;28;20683;-71
2021/07/19 02:40:39;;;;;;;15.80;14.35;;;20.60;99.90;;;;;;5069137;28;20670;-70
2021/07/19 02:43:08;;;;;;;16.83;14.27;;;20.50;99.90;;;;;;5070305;28;20207;-70
2021/07/19 02:45:38;;;;;;;14.13;12.77;;;20.50;99.90;;;;;;5070019;28;20801;-70
2021/07/19 02:48:07;;;;;;;17.40;13.85;;;20.50;99.90;;;;;;5070456;28;20666;-70
2021/07/19 02:50:34;;;;;;;15.45;13.85;;;20.40;99.90;;;;;;5069514;28;20267;-70
2021/07/19 02:53:05;;;;;;;15.27;13.77;;;20.40;99.90;;;;;;5070655;28;20202;-72
2021/07/19 02:55:34;;;;;;;16.35;14.63;;;20.40;99.90;;;;;;5069963;28;20210;-72
2021/07/19 02:58:02;;;;;;;15.38;13.98;;;20.30;99.90;;;;;;5073416;28;20279;-72
2021/07/19 03:00:29;;;;;;;15.93;14.52;;;20.30;99.90;;;;;;5073295;28;20628;-71
2021/07/19 03:02:58;;;;;;;16.05;14.35;;;20.30;99.90;;;;;;5073390;28;20206;-73
2021/07/19 03:05:28;;;;;;;17.75;15.70;;;20.20;99.90;;;;;;5073776;28;20210;-72
2021/07/19 03:07:57;;;;;;;17.90;16.13;;;20.30;99.90;;;;;;5072777;28;20201;-73
2021/07/19 03:10:29;;;;;;;16.05;14.65;;;20.40;99.90;;;;;;5073159;28;20240;-73
2021/07/19 03:12:59;;;;;;;16.60;14.07;;;20.40;99.90;;;;;;5073131;28;20267;-73
2021/07/19 03:15:29;;;;;;;15.43;14.13;;;20.50;99.90;;;;;;5073538;28;20243;-73
2021/07/19 03:17:58;;;;;;;15.60;14.00;;;20.50;99.90;;;;;;5072954;28;20672;-71
2021/07/19 03:20:26;;;;;;;15.73;14.13;;;20.40;99.90;;;;;;5073486;28;20255;-73
2021/07/19 03:22:55;;;;;;;16.30;14.63;;;20.50;99.90;;;;;;5073186;28;20210;-71
2021/07/19 03:25:27;;;;;;;16.63;15.05;;;20.60;99.90;;;;;;5072638;28;20283;-71
2021/07/19 03:27:56;;;;;;;17.80;15.35;;;20.60;99.90;;;;;;5072709;28;20222;-71
2021/07/19 03:30:24;;;;;;;15.32;13.63;;;20.70;99.90;;;;;;5073105;28;20214;-71
2021/07/19 03:32:51;;;;;;;18.35;14.32;;;20.60;99.90;;;;;;5072688;28;20202;-71
2021/07/19 03:35:22;;;;;;;13.98;12.48;;;20.60;99.90;;;;;;5072799;28;20622;-72
2021/07/19 03:37:49;;;;;;;14.75;13.43;;;20.60;99.90;;;;;;5072568;28;20233;-71
2021/07/19 03:40:19;;;;;;;14.30;12.93;;;20.50;99.90;;;;;;5072715;28;20240;-72
2021/07/19 03:42:49;;;;;;;16.95;15.18;;;20.50;99.90;;;;;;5072807;28;20206;-72
2021/07/19 03:45:17;;;;;;;16.65;15.05;;;20.50;99.90;;;;;;5072974;28;20213;-73
2021/07/19 03:47:46;;;;;;;16.95;15.25;;;20.50;99.90;;;;;;5072575;28;20296;-73
2021/07/19 03:50:15;;;;;;;16.08;13.93;;;20.50;99.90;;;;;;5072603;28;20241;-72
2021/07/19 03:52:43;;;;;;;16.02;14.63;;;20.40;99.90;;;;;;5072224;28;20228;-72
2021/07/19 03:55:13;;;;;;;16.48;14.88;;;20.40;99.90;;;;;;5072609;28;20217;-72
2021/07/19 03:57:41;;;;;;;16.40;14.77;;;20.40;99.90;;;;;;5072183;28;20613;-74
2021/07/19 04:00:12;;;;;;;17.98;16.17;;;20.30;99.90;;;;;;5072912;28;20207;-73
2021/07/19 04:02:41;;;;;;;17.73;15.90;;;20.40;99.90;;;;;;5071995;28;20206;-72
2021/07/19 04:05:14;;;;;;;17.08;15.27;;;20.40;99.90;;;;;;5072491;28;20206;-72
2021/07/19 04:07:44;;;;;;;16.15;14.68;;;20.30;99.90;;;;;;5071198;28;20719;-72
2021/07/19 04:10:13;;;;;;;16.88;15.27;;;20.30;99.90;;;;;;5071706;28;20228;-73
2021/07/19 04:12:41;;;;;;;18.23;16.33;;;20.20;99.90;;;;;;5072190;28;20210;-73
2021/07/19 04:15:11;;;;;;;16.65;14.98;;;20.30;99.90;;;;;;5071925;28;20206;-72
2021/07/19 04:17:38;;;;;;;23.83;16.52;;;20.20;99.90;;;;;;5071873;28;20230;-73
2021/07/19 04:20:07;;;;;;;17.05;15.25;;;20.10;99.90;;;;;;5072122;28;20198;-72
2021/07/19 04:22:35;;;;;;;17.10;15.07;;;20.00;99.90;;;;;;5072129;28;20264;-71
2021/07/19 04:25:04;;;;;;;17.02;15.32;;;20.10;99.90;;;;;;5071941;28;20217;-72
2021/07/19 04:27:34;;;;;;;16.83;15.10;;;20.10;99.90;;;;;;5072311;28;20265;-72
2021/07/19 04:30:01;;;;;;;19.33;16.17;;;20.00;99.90;;;;;;5071556;28;20202;-72
2021/07/19 04:32:29;;;;;;;16.42;14.68;;;20.10;99.90;;;;;;5071921;28;20210;-73
2021/07/19 04:34:56;;;;;;;19.98;16.70;;;20.10;99.90;;;;;;5071250;28;20210;-73
2021/07/19 04:37:23;;;;;;;17.55;14.63;;;20.10;99.90;;;;;;5071569;28;20241;-73
2021/07/19 04:39:51;;;;;;;18.77;16.98;;;20.00;99.90;;;;;;5071680;28;20264;-73
2021/07/19 04:42:18;;;;;;;17.35;15.73;;;20.00;99.90;;;;;;5071438;28;20211;-72
2021/07/19 04:44:45;;;;;;;19.45;15.95;;;20.10;99.90;;;;;;5071521;28;20201;-72
2021/07/19 04:47:12;;;;;;;17.50;15.75;;;19.90;99.90;;;;;;5071380;28;20202;-72
2021/07/19 04:49:42;;;;;;;17.60;15.90;;;20.00;99.90;;;;;;5071366;28;20206;-71
2021/07/19 04:52:09;;;;;;;18.63;16.52;;;20.00;99.90;;;;;;5071027;28;20267;-72
2021/07/19 04:54:38;;;;;;;17.48;15.68;;;19.90;99.90;;;;;;5071131;28;20687;-72
2021/07/19 04:57:07;;;;;;;17.50;15.85;;;19.80;99.90;;;;;;5070970;28;20237;-72
2021/07/19 04:59:40;;;;;;;17.70;15.98;;;19.80;99.90;;;;;;5071680;28;20209;-72
2021/07/19 05:02:11;;;;;;;20.20;16.48;;;19.70;99.90;;;;;;5071400;28;20277;-69
2021/07/19 05:04:39;;;;;;;15.85;14.40;;;19.70;99.90;;;;;;5070543;28;20723;-75
2021/07/19 05:07:08;;;;;;;17.27;15.20;;;19.90;99.90;;;;;;5071255;28;20256;-71
2021/07/19 05:09:40;;;;;;;17.92;16.13;;;20.00;99.90;;;;;;5071132;28;20669;-71
2021/07/19 05:12:10;;;;;;;18.75;16.77;;;20.10;99.90;;;;;;5071279;28;20289;-73
2021/07/19 05:14:38;;;;;;;16.83;15.05;;;20.00;99.90;;;;;;5070831;28;20202;-72
2021/07/19 05:17:09;;;;;;;18.13;16.35;;;20.10;99.90;;;;;;5071322;28;20248;-74
2021/07/19 05:19:37;;;;;;;17.20;15.52;;;20.10;99.90;;;;;;5070558;28;20216;-73
2021/07/19 05:22:10;;;;;;;19.48;17.45;;;20.20;99.90;;;;;;5057678;28;20264;-72
2021/07/19 05:24:38;;;;;;;18.08;16.30;;;20.20;99.90;;;;;;5070246;28;20301;-71
2021/07/19 05:27:05;;;;;;;18.63;16.10;;;20.30;99.90;;;;;;5071222;28;20203;-71
2021/07/19 05:29:33;;;;;;;25.05;16.98;;;20.20;99.90;;;;;;5071462;28;20256;-71
2021/07/19 05:32:00;;;;;;;17.70;15.40;;;20.30;99.90;;;;;;5070360;28;20202;-73
2021/07/19 05:34:27;;;;;;;17.02;15.45;;;20.30;99.90;;;;;;5070618;28;20268;-74
2021/07/19 05:36:55;;;;;;;19.23;17.20;;;20.30;99.90;;;;;;5069965;28;20283;-74
2021/07/19 05:39:24;;;;;;;17.08;15.25;;;20.30;99.90;;;;;;5070493;28;20237;-76
2021/07/19 05:41:53;;;;;;;16.58;14.95;;;20.40;99.90;;;;;;5070216;28;20214;-77
2021/07/19 05:44:20;;;;;;;18.00;16.25;;;20.50;99.90;;;;;;5070557;28;20213;-77
2021/07/19 05:46:48;;;;;;;19.65;15.85;;;20.50;99.90;;;;;;5070482;28;20244;-77
2021/07/19 05:49:17;;;;;;;17.85;15.40;;;20.50;99.90;;;;;;5056373;28;20222;-75
2021/07/19 05:51:45;;;;;;;21.40;16.02;;;20.60;99.90;;;;;;5070102;28;20212;-73
2021/07/19 05:54:12;;;;;;;19.50;16.55;;;20.60;99.90;;;;;;5070420;28;20281;-76
2021/07/19 05:56:41;;;;;;;19.48;17.05;;;20.60;99.90;;;;;;5070003;28;20206;-77
2021/07/19 05:59:09;;;;;;;18.30;16.35;;;20.70;99.90;;;;;;5069755;28;20234;-74
2021/07/19 06:01:40;;;;;;;18.80;16.52;;;20.70;99.90;;;;;;5070774;28;20263;-75
2021/07/19 06:04:10;;;;;;;20.13;16.60;;;20.80;99.90;;;;;;5069901;28;20238;-74
2021/07/19 06:06:37;;;;;;;16.88;15.38;;;21.10;99.90;;;;;;5070385;28;20238;-73
2021/07/19 06:09:04;;;;;;;19.75;17.10;;;21.40;99.90;;;;;;5070419;28;20693;-71
2021/07/19 06:11:31;;;;;;;17.58;14.00;;;21.60;99.90;;;;;;5070588;28;20292;-73
2021/07/19 06:14:00;;;;;;;17.20;15.48;;;21.70;99.90;;;;;;5070006;28;20202;-69
2021/07/19 06:16:26;;;;;;;18.00;16.13;;;21.90;99.90;;;;;;5069986;28;20243;-71
2021/07/19 06:18:53;;;;;;;18.90;17.02;;;22.00;99.90;;;;;;5069656;28;20775;-71
2021/07/19 06:21:21;;;;;;;20.00;17.00;;;21.90;99.90;;;;;;5069911;28;20209;-72
2021/07/19 06:23:48;;;;;;;17.42;15.75;;;21.80;99.90;;;;;;5069827;28;20210;-70
2021/07/19 06:26:14;;;;;;;19.15;16.33;;;21.90;99.90;;;;;;5070209;28;20272;-71
2021/07/19 06:28:41;;;;;;;23.33;17.92;;;21.80;99.90;;;;;;5069703;28;20255;-70
2021/07/19 06:31:11;;;;;;;19.33;15.75;;;21.60;99.90;;;;;;5070461;28;20210;-72
2021/07/19 06:33:38;;;;;;;18.50;16.60;;;21.40;99.90;;;;;;5072886;28;20268;-73
2021/07/19 06:36:05;;;;;;;18.15;16.33;;;21.20;99.90;;;;;;5076138;28;20209;-70
2021/07/19 06:38:32;;;;;;;19.08;16.77;;;21.40;99.90;;;;;;5084953;28;20282;-70
2021/07/19 06:40:59;;;;;;;17.70;16.00;;;21.40;99.90;;;;;;5074949;28;20201;-70
2021/07/19 06:43:26;;;;;;;18.30;15.98;;;21.50;99.90;;;;;;5083405;28;20209;-71
2021/07/19 06:45:53;;;;;;;20.75;18.55;;;21.40;99.90;;;;;;5080179;28;20202;-70
2021/07/19 06:48:21;;;;;;;18.55;16.65;;;21.50;99.90;;;;;;5083547;28;20266;-72
2021/07/19 06:50:48;;;;;;;20.17;16.77;;;21.60;99.90;;;;;;5085936;28;20206;-73
2021/07/19 06:53:15;;;;;;;17.95;15.02;;;21.70;99.90;;;;;;5091596;28;20206;-73
2021/07/19 06:55:42;;;;;;;19.15;15.57;;;21.70;99.90;;;;;;5091210;28;20202;-75
2021/07/19 06:58:09;;;;;;;18.42;16.63;;;21.80;99.90;;;;;;5086700;28;20225;-73
2021/07/19 07:00:36;;;;;;;19.60;16.85;;;21.70;99.90;;;;;;5088026;28;20310;-73
2021/07/19 07:03:03;;;;;;;18.55;16.63;;;21.70;99.90;;;;;;5090633;28;20247;-74
2021/07/19 07:05:32;;;;;;;17.10;15.38;;;21.70;99.90;;;;;;5090583;28;20251;-74
2021/07/19 07:07:58;;;;;;;19.02;17.23;;;21.60;99.90;;;;;;5079945;28;20696;-75
2021/07/19 07:10:25;;;;;;;20.25;17.45;;;21.70;99.90;;;;;;5080231;28;20630;-76
2021/07/19 07:12:52;;;;;;;15.95;14.27;;;21.70;99.90;;;;;;5073099;28;20734;-76
2021/07/19 07:15:19;;;;;;;17.17;15.25;;;21.80;99.90;;;;;;5073454;28;20202;-80
2021/07/19 07:17:46;;;;;;;17.38;15.57;;;21.90;99.90;;;;;;5073569;28;20206;-78
2021/07/19 07:20:14;;;;;;;17.17;15.48;;;22.10;99.90;;;;;;5072780;28;20214;-78
2021/07/19 07:22:42;;;;;;;18.67;15.30;;;22.00;99.90;;;;;;5073124;28;20622;-81
2021/07/19 07:25:11;;;;;;;17.00;15.40;;;22.00;99.90;;;;;;5072618;28;20210;-78
2021/07/19 07:27:39;;;;;;;16.13;14.55;;;22.10;99.90;;;;;;5073528;28;20263;-83
2021/07/19 07:30:08;;;;;;;18.05;16.33;;;22.20;99.90;;;;;;5073055;28;20202;-81
2021/07/19 07:32:36;;;;;;;17.50;14.85;;;22.20;99.90;;;;;;5073919;28;20213;-75
2021/07/19 07:35:03;;;;;;;17.08;15.38;;;22.10;99.90;;;;;;5073208;28;20206;-78
2021/07/19 07:37:32;;;;;;;16.40;14.57;;;22.20;99.90;;;;;;5073621;28;20202;-84
2021/07/19 07:40:00;;;;;;;17.58;13.75;;;22.30;99.90;;;;;;5072858;28;20234;-80
2021/07/19 07:42:28;;;;;;;16.60;13.88;;;22.50;99.90;;;;;;5061386;28;20739;-76
2021/07/19 07:44:56;;;;;;;19.27;15.40;;;22.60;99.90;;;;;;5071599;28;20213;-77
2021/07/19 07:47:23;;;;;;;17.10;15.43;;;22.70;99.90;;;;;;5071199;28;20627;-77
2021/07/19 07:49:50;;;;;;;18.45;14.57;;;22.80;99.90;;;;;;5072783;28;20607;-79
2021/07/19 07:52:17;;;;;;;17.02;15.32;;;23.00;99.90;;;;;;5071635;28;20205;-78
2021/07/19 07:54:44;;;;;;;24.58;14.55;;;23.10;99.90;;;;;;5071917;28;20206;-78
2021/07/19 07:57:13;;;;;;;17.60;16.00;;;23.20;99.90;;;;;;5076402;28;20263;-79
2021/07/19 07:59:40;;;;;;;16.55;14.48;;;23.40;99.90;;;;;;5082949;28;20230;-79
2021/07/19 08:02:08;;;;;;;17.23;15.27;;;23.60;99.90;;;;;;5072091;28;20256;-77
2021/07/19 08:04:36;;;;;;;17.75;15.90;;;23.50;99.90;;;;;;5080245;28;20296;-75
2021/07/19 08:07:04;;;;;;;15.95;14.25;;;23.60;99.90;;;;;;5076165;28;20206;-74
2021/07/19 08:09:31;;;;;;;16.90;15.05;;;23.70;99.90;;;;;;5071838;28;20213;-74
2021/07/19 08:11:58;;;;;;;17.55;14.82;;;24.30;99.90;;;;;;5072021;28;20198;-74
2021/07/19 08:14:27;;;;;;;16.50;14.75;;;25.00;99.90;;;;;;5072337;28;20283;-74
2021/07/19 08:16:54;;;;;;;17.00;13.73;;;26.50;99.90;;;;;;5071403;28;20199;-74
2021/07/19 08:19:22;;;;;;;21.38;13.75;;;27.10;99.90;;;;;;5071989;28;20271;-74
2021/07/19 08:21:52;;;;;;;16.25;14.75;;;25.90;99.90;;;;;;5078410;28;20217;-73
2021/07/19 08:24:19;;;;;;;16.15;14.40;;;25.10;99.90;;;;;;5081414;28;20209;-73
2021/07/19 08:26:46;;;;;;;17.67;14.25;;;24.80;99.90;;;;;;5074493;28;20202;-73
2021/07/19 08:29:13;;;;;;;15.18;13.77;;;24.60;99.90;;;;;;5071703;28;20611;-74
2021/07/19 08:31:44;;;;;;;15.88;14.13;;;24.60;99.90;;;;;;5071139;28;20608;-73
2021/07/19 08:34:11;;;;;;;15.55;13.95;;;24.60;99.90;;;;;;5071174;28;20195;-73
2021/07/19 08:36:38;;;;;;;15.68;13.52;;;24.70;99.90;;;;;;5071040;28;20248;-73
2021/07/19 08:39:06;;;;;;;15.55;13.95;;;25.10;99.90;;;;;;5070679;28;20226;-75
2021/07/19 08:41:33;;;;;;;16.95;14.43;;;25.10;99.90;;;;;;5071742;28;20206;-74
2021/07/19 08:44:05;;;;;;;15.93;13.85;;;25.60;99.90;;;;;;5070823;28;20202;-75
2021/07/19 08:46:32;;;;;;;15.57;13.98;;;26.70;99.90;;;;;;5063516;28;20202;-75
2021/07/19 08:49:00;;;;;;;18.35;14.82;;;27.60;99.90;;;;;;5074826;28;20243;-74
2021/07/19 08:51:27;;;;;;;15.38;13.77;;;27.10;99.90;;;;;;5089844;28;20669;-74
2021/07/19 08:53:55;;;;;;;14.45;12.95;;;27.10;99.90;;;;;;5084331;28;20669;-71
2021/07/19 08:56:22;;;;;;;14.50;12.88;;;27.30;99.90;;;;;;5087204;28;20630;-74
2021/07/19 08:58:50;;;;;;;14.75;13.35;;;26.80;99.90;;;;;;5085821;28;20267;-76
2021/07/19 09:01:17;;;;;;;15.85;13.77;;;26.50;99.90;;;;;;5070946;28;20756;-74
2021/07/19 09:03:44;;;;;;;15.98;14.48;;;26.40;99.90;;;;;;5071053;28;20597;-77
2021/07/19 09:06:13;;;;;;;17.08;13.05;;;26.20;99.90;;;;;;5071227;28;20202;-76
2021/07/19 09:08:47;;;;;;;15.45;12.02;;;27.00;99.90;;;;;;5068901;28;20209;-76
2021/07/19 09:11:14;;;;;;;17.63;13.90;;;27.60;99.90;;;;;;5070291;28;20260;-76
2021/07/19 09:14:00;;;;;;;14.52;13.23;;;27.50;99.90;;;;;;5070636;28;20210;-73
2021/07/19 09:16:27;;;;;;;13.35;11.98;;;27.10;99.90;;;;;;5070784;28;20263;-73
2021/07/19 09:19:05;;;;;;;13.65;12.35;;;26.50;99.90;;;;;;5070337;28;20230;-74
2021/07/19 09:21:34;;;;;;;13.25;12.00;;;27.00;99.90;;;;;;5071227;28;20214;-72
2021/07/19 09:24:06;;;;;;;15.88;14.38;;;27.00;99.90;;;;;;5071084;28;20213;-72
2021/07/19 09:26:34;;;;;;;17.52;13.05;;;26.90;99.90;;;;;;5070927;28;20247;-75
2021/07/19 09:29:03;;;;;;;13.77;12.30;;;26.90;99.90;;;;;;5081219;28;20624;-75
2021/07/19 09:31:35;;;;;;;15.38;13.15;;;27.00;99.90;;;;;;5085359;28;20262;-76
2021/07/19 09:34:02;;;;;;;14.48;13.07;;;27.20;99.90;;;;;;5077600;28;20202;-74
2021/07/19 09:36:31;;;;;;;14.65;13.15;;;27.20;99.90;;;;;;5086532;28;20251;-72
2021/07/19 09:39:07;;;;;;;14.30;12.77;;;27.80;99.90;;;;;;5082107;28;20230;-74
2021/07/19 09:41:35;;;;;;;13.18;12.02;;;27.60;99.90;;;;;;5076563;28;20626;-74
2021/07/19 09:44:07;;;;;;;15.82;14.30;;;27.90;99.90;;;;;;5071261;28;20202;-75
2021/07/19 09:46:35;;;;;;;14.15;12.77;;;28.40;99.90;;;;;;5076509;28;20232;-73
2021/07/19 09:49:04;;;;;;;14.32;13.00;;;28.70;99.90;;;;;;5075064;28;20661;-73
2021/07/19 09:51:32;;;;;;;13.25;12.15;;;29.80;99.90;;;;;;5073477;28;20681;-73
2021/07/19 09:54:11;;;;;;;13.52;12.38;;;28.80;99.90;;;;;;5076620;28;20274;-73
2021/07/19 09:56:39;;;;;;;14.45;11.20;;;28.90;99.90;;;;;;5075144;28;20266;-74
2021/07/19 09:59:08;;;;;;;14.75;11.68;;;29.50;99.90;;;;;;5077979;28;20221;-74
2021/07/19 10:01:36;;;;;;;13.82;12.68;;;31.70;99.90;;;;;;5076472;28;20205;-74
2021/07/19 10:04:08;;;;;;;13.10;11.85;;;34.30;99.90;;;;;;5080210;28;20196;-74
2021/07/19 10:06:36;;;;;;;11.75;10.77;;;37.40;99.90;;;;;;5077085;28;20271;-74
2021/07/19 10:09:06;;;;;;;13.52;12.27;;;39.10;99.90;;;;;;5078635;28;20625;-73
2021/07/19 10:11:38;;;;;;;12.00;10.90;;;39.80;99.90;;;;;;5071084;28;20279;-74
2021/07/19 10:14:06;;;;;;;11.05;10.00;;;39.90;99.90;;;;;;5071249;28;20212;-74
2021/07/19 10:16:35;;;;;;;11.85;10.35;;;40.40;99.90;;;;;;5072912;28;20270;-74
2021/07/19 10:19:05;;;;;;;13.52;12.40;;;40.70;99.90;;;;;;5072515;28;20354;-75
2021/07/19 10:21:34;;;;;;;12.60;11.35;;;40.20;99.90;;;;;;5072385;28;20260;-74
2021/07/19 10:24:03;;;;;;;11.57;10.60;;;40.80;99.90;;;;;;5071957;28;20550;-74
2021/07/19 10:26:31;;;;;;;14.65;11.98;;;40.50;99.90;;;;;;5075732;28;20208;-73
2021/07/19 10:29:00;;;;;;;12.52;11.32;;;40.70;99.90;;;;;;5073320;28;20202;-74
2021/07/19 10:31:28;;;;;;;13.52;12.18;;;39.90;99.90;;;;;;5077186;28;20260;-75
2021/07/19 10:33:57;;;;;;;11.25;10.18;;;41.00;99.90;;;;;;5073778;28;20202;-74
2021/07/19 10:36:31;;;;;;;11.23;10.32;;;40.80;99.90;;;;;;5073609;28;20742;-75
2021/07/19 10:39:02;;;;;;;11.13;10.13;;;40.50;99.90;;;;;;5080798;28;20217;-78
2021/07/19 10:41:29;;;;;;;10.45;9.55;;;38.40;99.90;;;;;;5082051;28;20288;-74
2021/07/19 10:44:06;;;;;;;10.68;9.70;;;33.30;99.90;;;;;;5074476;28;20258;-75
2021/07/19 10:46:33;;;;;;;10.82;9.55;;;30.60;99.90;;;;;;5074516;28;20578;-78
2021/07/19 10:49:08;;;;;;;11.88;10.80;;;30.00;99.90;;;;;;5071645;28;20673;-75
2021/07/19 10:51:44;;;;;;;14.13;10.10;;;29.60;99.90;;;;;;5071299;28;20212;-76
2021/07/19 10:54:13;;;;;;;13.00;10.63;;;29.20;99.90;;;;;;5067988;28;20197;-75
2021/07/19 10:56:40;;;;;;;10.95;9.43;;;29.30;99.90;;;;;;5069886;28;20205;-77
2021/07/19 10:59:09;;;;;;;11.48;9.55;;;29.30;99.90;;;;;;5069643;28;20229;-77
2021/07/19 11:01:36;;;;;;;11.38;10.20;;;29.20;99.90;;;;;;5070141;28;20263;-72
2021/07/19 11:04:16;;;;;;;10.40;9.50;;;29.20;99.90;;;;;;5069961;28;20210;-77
2021/07/19 11:06:47;;;;;;;12.27;10.57;;;29.00;99.90;;;;;;5069669;28;20288;-76
2021/07/19 11:09:15;;;;;;;11.80;9.05;;;29.20;99.90;;;;;;5069621;28;20289;-74
2021/07/19 11:11:44;;;;;;;10.48;9.40;;;29.40;99.90;;;;;;5069353;28;20210;-75
2021/07/19 11:14:20;;;;;;;10.23;9.32;;;29.10;99.90;;;;;;5069839;28;20210;-74
2021/07/19 11:16:50;;;;;;;11.50;9.35;;;29.10;99.90;;;;;;5069144;28;20616;-75
2021/07/19 11:19:29;;;;;;;14.45;10.50;;;29.30;99.90;;;;;;5073459;28;20309;-76
2021/07/19 11:22:06;;;;;;;11.20;10.07;;;29.40;99.90;;;;;;5072758;28;20202;-75
2021/07/19 11:24:40;;;;;;;11.48;10.05;;;29.40;99.90;;;;;;5073376;28;20689;-76
2021/07/19 11:27:07;;;;;;;13.32;9.73;;;29.30;99.90;;;;;;5073077;28;20202;-74
2021/07/19 11:29:37;;;;;;;10.98;9.65;;;29.40;99.90;;;;;;5064912;28;20203;-76
2021/07/19 11:32:19;;;;;;;12.50;10.00;;;29.20;99.90;;;;;;5071438;28;20198;-71
2021/07/19 11:34:48;;;;;;;9.25;8.35;;;29.30;99.90;;;;;;5069550;28;20198;-75
2021/07/19 11:37:17;;;;;;;11.02;9.40;;;29.10;99.90;;;;;;5072978;28;20739;-75
2021/07/19 11:39:46;;;;;;;11.18;9.40;;;29.30;99.90;;;;;;5072572;28;20288;-75
2021/07/19 11:42:15;;;;;;;9.75;8.75;;;29.30;99.90;;;;;;5072607;28;20252;-74
2021/07/19 11:44:44;;;;;;;13.75;9.48;;;29.30;99.90;;;;;;5071642;28;20735;-71
2021/07/19 11:47:16;;;;;;;14.07;10.13;;;29.20;99.90;;;;;;5074744;28;20228;-74
2021/07/19 11:49:43;;;;;;;10.88;9.88;;;29.10;99.90;;;;;;5085179;28;20193;-75
2021/07/19 11:52:11;;;;;;;9.85;8.85;;;28.90;99.90;;;;;;5082316;28;20205;-73
2021/07/19 11:54:39;;;;;;;11.43;9.43;;;29.00;99.90;;;;;;5079221;28;20520;-72
2021/07/19 11:57:09;;;;;;;9.65;8.65;;;29.20;99.90;;;;;;5078451;28;20201;-72
2021/07/19 11:59:40;;;;;;;9.90;8.85;;;29.20;99.90;;;;;;5083900;28;20222;-71
2021/07/19 12:02:09;;;;;;;10.90;9.98;;;29.20;99.90;;;;;;5080006;28;20298;-70
2021/07/19 12:04:40;;;;;;;16.33;10.60;;;29.30;99.90;;;;;;5087042;28;20202;-72
2021/07/19 12:07:08;;;;;;;10.40;9.48;;;29.50;99.90;;;;;;5084877;28;20252;-70
2021/07/19 12:09:35;;;;;;;12.25;10.30;;;29.30;99.90;;;;;;5082363;28;20665;-70
2021/07/19 12:12:03;;;;;;;10.77;9.30;;;29.20;99.90;;;;;;5083387;28;20202;-70
2021/07/19 12:14:30;;;;;;;10.25;9.13;;;29.20;99.90;;;;;;5078459;28;20561;-71
2021/07/19 12:16:58;;;;;;;9.82;8.82;;;29.30;99.90;;;;;;5083829;28;20746;-71
2021/07/19 12:19:27;;;;;;;10.65;9.23;;;29.40;99.90;;;;;;5086217;28;20673;-72
2021/07/19 12:21:56;;;;;;;10.50;9.35;;;29.60;99.90;;;;;;5085757;28;20289;-71
2021/07/19 12:24:26;;;;;;;11.57;10.32;;;29.80;99.90;;;;;;5088588;28;20205;-72
2021/07/19 12:26:55;;;;;;;14.38;9.52;;;29.90;99.90;;;;;;5084511;28;20203;-72
2021/07/19 12:29:26;;;;;;;9.13;8.32;;;30.10;99.90;;;;;;5077833;28;20257;-72
2021/07/19 12:31:55;;;;;;;10.00;8.65;;;30.10;99.90;;;;;;5079668;28;20198;-71
2021/07/19 12:34:24;;;;;;;13.82;10.35;;;30.20;99.90;;;;;;5085722;28;20288;-70
2021/07/19 12:36:55;;;;;;;14.07;10.20;;;29.90;99.90;;;;;;5078276;28;20246;-73